createdAt,value
2022-08-26T00:01:32.891Z,101646.03
2022-08-26T00:04:01.591Z,101648.09
2022-08-26T00:06:34.692Z,101644.88
2022-08-26T00:09:01.683Z,101660.25
2022-08-26T00:11:35.739Z,101652.34
2022-08-26T00:14:02.241Z,101657.28
2022-08-26T00:16:29.581Z,101652.25
2022-08-26T00:19:02.846Z,101656.22
2022-08-26T00:21:29.313Z,101647.97
2022-08-26T00:24:03.873Z,101651.91
2022-08-26T00:26:30.356Z,101662.09
2022-08-26T00:29:03.692Z,101653.63
2022-08-26T00:31:39.897Z,101657.88
2022-08-26T00:34:06.677Z,101648.34
2022-08-26T00:36:35.898Z,101650.19
2022-08-26T00:39:08.688Z,101650.41
2022-08-26T00:41:39.841Z,101654.06
2022-08-26T00:44:15.697Z,101655.69
2022-08-26T00:46:46.612Z,101650.88
2022-08-26T00:49:38.884Z,101644.28
2022-08-26T00:52:09.924Z,101637.88
2022-08-26T00:54:53.667Z,101656.59
2022-08-26T00:57:21.891Z,101657.16
2022-08-26T00:59:59.726Z,101656.13
2022-08-26T01:02:27.147Z,101658.31
2022-08-26T01:05:05.883Z,101657.47
2022-08-26T01:07:41.680Z,101657.06
2022-08-26T01:10:18.695Z,101659.69
2022-08-26T01:12:52.323Z,101649.34
2022-08-26T01:15:41.885Z,101646.13
2022-08-26T01:18:09.929Z,101641.66
2022-08-26T01:20:57.653Z,101647.16
2022-08-26T01:23:35.716Z,101646.94
2022-08-26T01:26:19.630Z,101644.97
2022-08-26T01:28:55.682Z,101641.75
2022-08-26T01:31:28.927Z,101642.78
2022-08-26T01:34:07.870Z,101643.59
2022-08-26T01:36:45.959Z,101643.00
2022-08-26T01:39:16.272Z,101644.41
2022-08-26T01:41:51.818Z,101647.84
2022-08-26T01:44:23.777Z,101649.22
2022-08-26T01:46:59.883Z,101655.19
2022-08-26T01:49:27.748Z,101657.50
2022-08-26T01:52:02.682Z,101657.50
2022-08-26T01:54:29.632Z,101653.00
2022-08-26T01:57:02.701Z,101648.78
2022-08-26T01:59:30.345Z,101659.34
2022-08-26T02:01:57.210Z,101659.09
2022-08-26T02:04:39.900Z,101658.28
2022-08-26T02:07:09.447Z,101653.47
2022-08-26T02:09:49.680Z,101665.06
2022-08-26T02:12:18.222Z,101665.06
2022-08-26T02:14:57.744Z,101664.84
2022-08-26T02:17:39.655Z,101662.44
2022-08-26T02:20:26.475Z,101661.38
2022-08-26T02:22:59.728Z,101657.72
2022-08-26T02:25:41.304Z,101655.88
2022-08-26T02:28:16.722Z,101662.78
2022-08-26T02:30:47.145Z,101659.09
2022-08-26T02:33:21.687Z,101664.63
2022-08-26T02:35:48.702Z,101664.63
2022-08-26T02:38:21.804Z,101658.75
2022-08-26T02:40:48.380Z,101658.97
2022-08-26T02:43:31.314Z,101655.53
2022-08-26T02:46:01.820Z,101660.34
2022-08-26T02:48:35.921Z,101650.81
2022-08-26T02:51:03.508Z,101649.91
2022-08-26T02:53:37.662Z,101643.25
2022-08-26T02:56:14.923Z,101640.84
2022-08-26T02:58:47.672Z,101638.41
2022-08-26T03:01:26.211Z,101644.75
2022-08-26T03:04:00.783Z,101640.50
2022-08-26T03:06:33.868Z,101646.00
2022-08-26T03:09:00.458Z,101649.91
2022-08-26T03:11:33.832Z,101644.63
2022-08-26T03:14:07.724Z,101639.34
2022-08-26T03:16:37.797Z,101653.78
2022-08-26T03:19:13.703Z,101655.03
2022-08-26T03:21:44.617Z,101651.59
2022-08-26T03:24:20.880Z,101654.03
2022-08-26T03:26:52.052Z,101656.09
2022-08-26T03:29:49.578Z,101648.75
2022-08-26T03:32:17.091Z,101643.47
2022-08-26T03:34:43.721Z,101647.72
2022-08-26T03:37:16.664Z,101644.63
2022-08-26T03:39:43.511Z,101648.84
2022-08-26T03:42:17.707Z,101642.78
2022-08-26T03:44:48.652Z,101651.03
2022-08-26T03:47:23.860Z,101641.28
2022-08-26T03:49:56.672Z,101653.22
2022-08-26T03:52:29.671Z,101647.72
2022-08-26T03:54:56.056Z,101646.72
2022-08-26T03:57:22.811Z,101659.06
2022-08-26T03:59:55.684Z,101660.47
2022-08-26T04:02:29.694Z,101651.16
2022-08-26T04:04:56.272Z,101656.44
2022-08-26T04:07:29.671Z,101649.34
2022-08-26T04:10:05.876Z,101649.34
2022-08-26T04:12:32.356Z,101653.56
2022-08-26T04:15:05.679Z,101644.63
2022-08-26T04:17:32.710Z,101655.97
2022-08-26T04:19:59.203Z,101643.25
2022-08-26T04:22:33.689Z,101639.00
2022-08-26T04:25:06.937Z,101640.03
2022-08-26T04:27:33.667Z,101642.69
2022-08-26T04:30:07.651Z,101638.06
2022-08-26T04:32:35.560Z,101637.28
2022-08-26T04:35:09.857Z,101637.72
2022-08-26T04:37:43.654Z,101641.41
2022-08-26T04:40:11.052Z,101648.28
2022-08-26T04:42:43.838Z,101645.66
2022-08-26T04:45:17.698Z,101648.06
2022-08-26T04:47:59.694Z,101644.38
2022-08-26T04:50:32.662Z,101652.28
2022-08-26T04:53:05.650Z,101656.31
2022-08-26T04:55:39.720Z,101648.19
2022-08-26T04:58:15.677Z,101657.84
2022-08-26T05:00:47.000Z,101653.91
2022-08-26T05:03:21.672Z,101667.25
2022-08-26T05:05:51.943Z,101665.19
2022-08-26T05:08:27.807Z,101667.03
2022-08-26T05:11:09.659Z,101665.41
2022-08-26T05:13:45.879Z,101666.19
2022-08-26T05:16:15.038Z,101677.31
2022-08-26T05:18:49.860Z,101675.28
2022-08-26T05:21:25.712Z,101671.47
2022-08-26T05:24:01.699Z,101675.75
2022-08-26T05:26:30.917Z,101678.16
2022-08-26T05:29:04.675Z,101687.31
2022-08-26T05:31:33.155Z,101682.03
2022-08-26T05:34:09.674Z,101685.50
2022-08-26T05:36:37.179Z,101686.75
2022-08-26T05:39:13.706Z,101689.38
2022-08-26T05:41:42.870Z,101690.19
2022-08-26T05:44:22.439Z,101692.59
2022-08-26T05:46:49.446Z,101700.50
2022-08-26T05:49:26.436Z,101709.50
2022-08-26T05:51:53.165Z,101701.34
2022-08-26T05:54:21.858Z,101700.06
2022-08-26T05:56:57.868Z,101709.59
2022-08-26T05:59:24.817Z,101707.75
2022-08-26T06:01:59.709Z,101707.75
2022-08-26T06:04:27.194Z,101710.16
2022-08-26T06:07:01.650Z,101713.38
2022-08-26T06:09:34.661Z,101711.78
2022-08-26T06:12:05.279Z,101710.28
2022-08-26T06:14:38.793Z,101713.16
2022-08-26T06:17:05.981Z,101715.22
2022-08-26T06:19:51.642Z,101713.38
2022-08-26T06:22:36.801Z,101713.53
2022-08-26T06:25:28.795Z,101719.19
2022-08-26T06:27:55.260Z,101719.97
2022-08-26T06:30:28.659Z,101719.75
2022-08-26T06:32:55.271Z,101722.25
2022-08-26T06:35:28.659Z,101725.47
2022-08-26T06:37:56.161Z,101722.50
2022-08-26T06:40:31.755Z,101727.88
2022-08-26T06:42:58.504Z,101723.41
2022-08-26T06:45:35.648Z,101728.69
2022-08-26T06:48:03.935Z,101729.84
2022-08-26T06:50:41.637Z,101736.63
2022-08-26T06:53:09.524Z,101733.66
2022-08-26T06:55:53.656Z,101729.16
2022-08-26T06:58:26.851Z,101729.63
2022-08-26T07:01:03.210Z,101733.41
2022-08-26T07:03:39.413Z,101739.03
2022-08-26T07:06:13.646Z,101738.09
2022-08-26T07:08:40.277Z,101746.03
2022-08-26T07:11:15.772Z,101746.94
2022-08-26T07:13:43.163Z,101755.22
2022-08-26T07:16:12.645Z,101753.28
2022-08-26T07:18:49.814Z,101757.28
2022-08-26T07:21:17.209Z,101756.72
2022-08-26T07:23:51.652Z,101761.00
2022-08-26T07:26:22.536Z,101754.31
2022-08-26T07:28:59.634Z,101762.47
2022-08-26T07:31:28.493Z,101765.22
2022-08-26T07:34:03.867Z,101774.53
2022-08-26T07:36:30.535Z,101770.06
2022-08-26T07:38:57.233Z,101769.81
2022-08-26T07:41:31.688Z,101777.75
2022-08-26T07:43:58.375Z,101779.38
2022-08-26T07:46:39.624Z,101776.28
2022-08-26T07:49:13.730Z,101793.59
2022-08-26T07:51:57.665Z,101795.22
2022-08-26T07:54:32.105Z,101796.81
2022-08-26T07:57:09.257Z,101796.22
2022-08-26T07:59:42.606Z,101797.84
2022-08-26T08:02:15.674Z,101799.94
2022-08-26T08:04:42.824Z,101803.94
2022-08-26T08:07:11.935Z,101793.59
2022-08-26T08:09:45.687Z,101801.41
2022-08-26T08:12:14.132Z,101801.06
2022-08-26T08:14:41.135Z,101801.06
2022-08-26T08:17:15.845Z,101797.16
2022-08-26T08:19:49.667Z,101794.75
2022-08-26T08:22:19.743Z,101795.78
2022-08-26T08:24:50.034Z,101796.00
2022-08-26T08:27:27.643Z,101789.94
2022-08-26T08:30:01.656Z,101787.63
2022-08-26T08:32:29.545Z,101796.13
2022-08-26T08:35:10.857Z,101795.31
2022-08-26T08:37:38.076Z,101802.09
2022-08-26T08:40:14.069Z,101794.41
2022-08-26T08:42:55.776Z,101794.53
2022-08-26T08:45:38.741Z,101797.63
2022-08-26T08:48:33.626Z,101799.47
2022-08-26T08:51:23.377Z,101814.03
2022-08-26T08:53:59.638Z,101810.59
2022-08-26T08:56:33.831Z,101808.06
2022-08-26T08:59:27.628Z,101805.44
2022-08-26T09:02:12.579Z,101810.59
2022-08-26T09:05:09.665Z,101806.47
2022-08-26T09:08:04.713Z,101811.28
2022-08-26T09:11:15.688Z,101813.47
2022-08-26T09:13:48.775Z,101819.13
2022-08-26T09:16:28.694Z,101816.25
2022-08-26T09:19:11.312Z,101817.97
2022-08-26T09:21:44.616Z,101829.72
2022-08-26T09:24:18.209Z,101817.06
2022-08-26T09:26:47.561Z,101817.03
2022-08-26T09:29:33.609Z,101822.78
2022-08-26T09:32:24.319Z,101823.69
2022-08-26T09:35:04.672Z,101818.84
2022-08-26T09:37:38.691Z,101821.63
2022-08-26T09:40:20.431Z,101820.78
2022-08-26T09:42:48.113Z,101823.06
2022-08-26T09:45:21.629Z,101819.25
2022-08-26T09:47:54.135Z,101823.88
2022-08-26T09:50:29.671Z,101826.22
2022-08-26T09:53:17.686Z,101827.44
2022-08-26T09:55:57.634Z,101824.13
2022-08-26T09:58:42.908Z,101829.19
2022-08-26T10:01:31.760Z,101826.09
2022-08-26T10:04:30.763Z,101826.28
2022-08-26T10:07:05.634Z,101832.84
2022-08-26T10:09:49.601Z,101824.78
2022-08-26T10:12:22.129Z,101824.56
2022-08-26T10:15:01.616Z,101816.78
2022-08-26T10:17:36.992Z,101819.91
2022-08-26T10:20:23.641Z,101828.06
2022-08-26T10:23:12.173Z,101815.28
2022-08-26T10:25:59.244Z,101819.81
2022-08-26T10:28:51.624Z,101813.63
2022-08-26T10:31:38.329Z,101811.84
2022-08-26T10:34:14.674Z,101813.78
2022-08-26T10:37:16.137Z,101802.69
2022-08-26T10:39:58.778Z,101810.88
2022-08-26T10:43:17.671Z,101809.16
2022-08-26T10:46:06.918Z,101811.53
2022-08-26T10:48:56.497Z,101814.38
2022-08-26T10:51:42.611Z,101817.66
2022-08-26T10:54:24.009Z,101819.75
2022-08-26T10:57:09.647Z,101820.94
2022-08-26T11:00:37.618Z,101824.38
2022-08-26T11:03:55.751Z,101819.75
2022-08-26T11:06:28.709Z,101815.09
2022-08-26T11:09:10.889Z,101816.69
2022-08-26T11:11:40.684Z,101820.56
2022-08-26T11:14:29.755Z,101823.03
2022-08-26T11:16:57.733Z,101814.22
2022-08-26T11:23:27.782Z,101811.00
2022-08-26T11:26:27.499Z,101810.88
2022-08-26T11:29:13.117Z,101823.19
2022-08-26T11:31:40.055Z,101819.56
2022-08-26T11:34:19.651Z,101822.22
2022-08-26T11:36:55.810Z,101826.09
2022-08-26T11:39:46.432Z,101829.63
2022-08-26T11:42:47.605Z,101830.94
2022-08-26T11:45:37.793Z,101833.16
2022-08-26T11:48:35.636Z,101833.19
2022-08-26T11:51:12.565Z,101825.31
2022-08-26T11:53:49.800Z,101833.13
2022-08-26T11:56:33.328Z,101825.59
2022-08-26T11:59:11.606Z,101822.47
2022-08-26T12:01:49.695Z,101822.81
2022-08-26T12:04:37.904Z,101830.69
2022-08-26T12:07:05.458Z,101822.56
2022-08-26T12:09:43.612Z,101829.97
2022-08-26T12:12:13.904Z,101825.31
2022-08-26T12:14:47.620Z,101834.88
2022-08-26T12:17:28.329Z,101829.06
2022-08-26T12:20:03.805Z,101824.09
2022-08-26T12:22:36.951Z,101826.78
2022-08-26T12:25:15.842Z,101830.22
2022-08-26T12:27:45.314Z,101829.91
2022-08-26T12:30:29.594Z,101827.34
2022-08-26T12:33:22.014Z,101836.91
2022-08-26T12:35:54.766Z,101828.53
2022-08-26T12:38:31.640Z,101830.50
2022-08-26T12:40:58.160Z,101834.88
2022-08-26T12:44:00.902Z,101841.38
2022-08-26T12:46:29.062Z,101837.34
2022-08-26T12:49:07.753Z,101849.63
2022-08-26T12:51:35.481Z,101842.25
2022-08-26T12:54:13.720Z,101849.16
2022-08-26T12:56:40.453Z,101844.16
2022-08-26T12:59:25.714Z,101850.31
2022-08-26T13:01:53.671Z,101849.38
2022-08-26T13:04:51.996Z,101846.00
2022-08-26T13:07:18.557Z,101844.94
2022-08-26T13:09:51.708Z,101839.28
2022-08-26T13:12:44.550Z,101845.38
2022-08-26T13:15:17.871Z,101840.81
2022-08-26T13:17:51.750Z,101832.41
2022-08-26T13:20:18.150Z,101838.75
2022-08-26T13:22:58.842Z,101832.16
2022-08-26T13:25:25.866Z,101832.03
2022-08-26T13:27:59.652Z,101826.84
2022-08-26T13:30:33.643Z,101822.41
2022-08-26T13:33:07.734Z,101820.28
2022-08-26T13:35:41.653Z,101822.34
2022-08-26T13:38:33.420Z,101816.56
2022-08-26T13:41:01.902Z,101819.81
2022-08-26T13:43:35.676Z,101811.56
2022-08-26T13:46:02.309Z,101817.28
2022-08-26T13:48:35.843Z,101827.75
2022-08-26T13:51:03.788Z,101818.78
2022-08-26T13:53:41.716Z,101819.50
2022-08-26T13:56:11.122Z,101827.47
2022-08-26T13:58:37.727Z,101823.94
2022-08-26T14:01:11.699Z,101831.00
2022-08-26T14:03:38.614Z,101842.56
2022-08-26T14:06:11.699Z,101834.84
2022-08-26T14:08:47.641Z,101832.44
2022-08-26T14:11:14.222Z,101835.25
2022-08-26T14:13:40.904Z,101826.84
2022-08-26T14:16:21.690Z,101829.06
2022-08-26T14:18:50.902Z,101820.41
2022-08-26T14:21:31.903Z,101830.34
2022-08-26T14:24:05.649Z,101830.31
2022-08-26T14:26:32.260Z,101828.88
2022-08-26T14:29:07.703Z,101827.56
2022-08-26T14:31:41.696Z,101827.59
2022-08-26T14:34:08.209Z,101826.78
2022-08-26T14:36:41.630Z,101817.75
2022-08-26T14:39:11.024Z,101819.59
2022-08-26T14:42:03.626Z,101827.78
2022-08-26T14:44:39.656Z,101806.78
2022-08-26T14:47:13.790Z,101813.09
2022-08-26T14:49:40.191Z,101804.19
2022-08-26T14:52:07.337Z,101814.94
2022-08-26T14:54:41.644Z,101823.47
2022-08-26T14:57:11.203Z,101816.25
2022-08-26T14:59:49.819Z,101807.00
2022-08-26T15:02:25.253Z,101817.03
2022-08-26T15:05:06.634Z,101807.72
2022-08-26T15:07:33.328Z,101805.31
2022-08-26T15:10:06.899Z,101806.63
2022-08-26T15:12:39.783Z,101811.00
2022-08-26T15:15:07.812Z,101804.03
2022-08-26T15:17:41.646Z,101801.66
2022-08-26T15:20:09.527Z,101810.19
2022-08-26T15:22:49.674Z,101811.50
2022-08-26T15:25:24.704Z,101803.84
2022-08-26T15:27:51.350Z,101810.59
2022-08-26T15:30:25.714Z,101813.44
2022-08-26T15:32:52.122Z,101807.91
2022-08-26T15:35:25.639Z,101809.97
2022-08-26T15:40:33.693Z,101798.41
2022-08-26T15:43:25.488Z,101804.78
2022-08-26T15:45:54.706Z,101787.06
2022-08-26T15:48:28.631Z,101787.84
2022-08-26T15:51:01.452Z,101784.16
2022-08-26T15:53:37.671Z,101795.59
2022-08-26T15:56:04.273Z,101789.25
2022-08-26T15:58:37.700Z,101788.38
2022-08-26T16:01:04.529Z,101789.94
2022-08-26T16:03:37.743Z,101787.84
2022-08-26T16:06:04.402Z,101791.75
2022-08-26T16:08:31.042Z,101794.28
2022-08-26T16:11:10.671Z,101792.72
2022-08-26T16:13:39.881Z,101803.66
2022-08-26T16:16:07.229Z,101794.91
2022-08-26T16:18:40.646Z,101798.28
2022-08-26T16:21:23.465Z,101794.09
2022-08-26T16:23:57.630Z,101798.00
2022-08-26T16:26:32.400Z,101798.63
2022-08-26T16:29:07.645Z,101794.84
2022-08-26T16:31:41.750Z,101794.47
2022-08-26T16:34:15.796Z,101787.09
2022-08-26T16:36:42.279Z,101791.41
2022-08-26T16:39:09.379Z,101800.16
2022-08-26T16:41:43.635Z,101797.16
2022-08-26T16:44:17.667Z,101804.75
2022-08-26T16:46:45.501Z,101807.03
2022-08-26T16:49:18.625Z,101804.06
2022-08-26T16:51:45.180Z,101808.84
2022-08-26T16:54:17.684Z,101811.72
2022-08-26T16:56:51.943Z,101812.16
2022-08-26T16:59:24.616Z,101814.94
2022-08-26T17:01:51.255Z,101828.69
2022-08-26T17:04:19.769Z,101815.03
2022-08-26T17:06:53.784Z,101816.25
2022-08-26T17:09:26.630Z,101814.00
2022-08-26T17:12:01.615Z,101818.84
2022-08-26T17:14:28.587Z,101820.22
2022-08-26T17:16:55.055Z,101830.31
2022-08-26T17:19:27.826Z,101823.59
2022-08-26T17:22:05.656Z,101819.41
2022-08-26T17:24:41.624Z,101823.88
2022-08-26T17:27:08.025Z,101822.56
2022-08-26T17:29:41.718Z,101827.44
2022-08-26T17:32:08.123Z,101831.56
2022-08-26T17:34:41.586Z,101833.84
2022-08-26T17:37:08.442Z,101832.88
2022-08-26T17:39:37.107Z,101834.94
2022-08-26T17:42:10.572Z,101844.06
2022-08-26T17:44:37.335Z,101831.34
2022-08-26T17:47:11.728Z,101836.69
2022-08-26T17:49:38.163Z,101848.28
2022-08-26T17:52:11.755Z,101843.22
2022-08-26T17:54:38.375Z,101843.31
2022-08-26T17:57:11.583Z,101849.00
2022-08-26T17:59:38.623Z,101844.88
2022-08-26T18:02:13.798Z,101846.50
2022-08-26T18:04:40.370Z,101848.19
2022-08-26T18:07:13.577Z,101854.69
2022-08-26T18:09:46.591Z,101857.31
2022-08-26T18:12:13.157Z,101850.28
2022-08-26T18:14:45.577Z,101852.91
2022-08-26T18:17:12.026Z,101853.94
2022-08-26T18:19:49.592Z,101853.34
2022-08-26T18:22:16.023Z,101842.88
2022-08-26T18:24:42.398Z,101844.72
2022-08-26T18:27:31.788Z,101846.38
2022-08-26T18:29:58.324Z,101854.72
2022-08-26T18:32:31.591Z,101851.72
2022-08-26T18:34:58.131Z,101857.25
2022-08-26T18:37:31.627Z,101855.84
2022-08-26T18:40:05.668Z,101859.91
2022-08-26T18:42:32.214Z,101856.25
2022-08-26T18:45:05.580Z,101858.28
2022-08-26T18:47:38.640Z,101860.91
2022-08-26T18:50:05.835Z,101868.44
2022-08-26T18:52:39.621Z,101868.66
2022-08-26T18:55:06.980Z,101869.09
2022-08-26T18:57:40.599Z,101871.72
2022-08-26T19:00:09.187Z,101872.56
2022-08-26T19:02:43.769Z,101875.81
2022-08-26T19:05:18.363Z,101879.84
2022-08-26T19:07:51.563Z,101884.91
2022-08-26T19:10:18.003Z,101878.47
2022-08-26T19:12:44.406Z,101887.59
2022-08-26T19:15:17.572Z,101884.56
2022-08-26T19:17:50.572Z,101891.06
2022-08-26T19:20:17.064Z,101890.06
2022-08-26T19:22:51.704Z,101893.28
2022-08-26T19:25:18.165Z,101884.00
2022-08-26T19:27:51.564Z,101888.06
2022-08-26T19:30:25.686Z,101886.63
2022-08-26T19:32:55.711Z,101885.22
2022-08-26T19:35:29.569Z,101887.06
2022-08-26T19:37:57.125Z,101885.06
2022-08-26T19:40:30.607Z,101897.22
2022-08-26T19:42:57.536Z,101905.13
2022-08-26T19:45:25.136Z,101898.31
2022-08-26T19:47:59.612Z,101900.13
2022-08-26T19:50:28.789Z,101900.16
2022-08-26T19:53:01.710Z,101893.91
2022-08-26T19:55:28.250Z,101893.75
2022-08-26T19:58:01.571Z,101897.00
2022-08-26T20:00:31.555Z,101903.47
2022-08-26T20:03:05.618Z,101903.31
2022-08-26T20:05:32.059Z,101901.88
2022-08-26T20:08:05.667Z,101909.00
2022-08-26T20:10:36.396Z,101907.41
2022-08-26T20:13:09.563Z,101903.59
2022-08-26T20:15:35.988Z,101904.00
2022-08-26T20:18:02.396Z,101902.97
2022-08-26T20:20:53.595Z,101901.97
2022-08-26T20:23:28.139Z,101901.34
2022-08-26T20:26:03.582Z,101885.53
2022-08-26T20:28:30.258Z,101898.72
2022-08-26T20:31:03.593Z,101905.38
2022-08-26T20:33:31.652Z,101903.34
2022-08-26T20:36:21.663Z,101902.53
2022-08-26T20:38:49.008Z,101894.25
2022-08-26T20:41:23.651Z,101891.63
2022-08-26T20:43:50.218Z,101898.34
2022-08-26T20:46:18.796Z,101898.34
2022-08-26T20:48:55.793Z,101891.88
2022-08-26T20:51:24.802Z,101898.78
2022-08-26T20:53:51.276Z,101894.50
2022-08-26T20:56:29.598Z,101906.66
2022-08-26T20:59:05.596Z,101891.09
2022-08-26T21:01:36.603Z,101902.44
2022-08-26T21:04:16.602Z,101899.00
2022-08-26T21:06:51.604Z,101897.41
2022-08-26T21:09:27.764Z,101900.06
2022-08-26T21:12:03.660Z,101899.25
2022-08-26T21:14:30.074Z,101901.69
2022-08-26T21:17:02.599Z,101904.16
2022-08-26T21:19:35.732Z,101898.09
2022-08-26T21:22:09.636Z,101902.75
2022-08-26T21:24:36.080Z,101897.47
2022-08-26T21:27:09.611Z,101898.50
2022-08-26T21:29:43.608Z,101902.72
2022-08-26T21:32:10.143Z,101898.25
2022-08-26T21:34:42.138Z,101911.00
2022-08-26T21:37:16.650Z,101908.19
2022-08-26T21:39:43.929Z,101914.66
2022-08-26T21:42:17.630Z,101907.19
2022-08-26T21:44:44.954Z,101911.84
2022-08-26T21:47:24.683Z,101909.41
2022-08-26T21:49:59.838Z,101907.38
2022-08-26T21:52:33.582Z,101908.81
2022-08-26T21:55:09.605Z,101909.41
2022-08-26T21:57:45.592Z,101914.28
2022-08-26T22:00:14.820Z,101918.31
2022-08-26T22:02:47.595Z,101917.31
2022-08-26T22:05:14.008Z,101927.41
2022-08-26T22:07:46.592Z,101918.94
2022-08-26T22:10:13.175Z,101919.94
2022-08-26T22:12:47.608Z,101923.16
2022-08-26T22:15:14.027Z,101924.19
2022-08-26T22:17:46.579Z,101926.00
2022-08-26T22:20:19.590Z,101922.16
2022-08-26T22:22:46.012Z,101927.22
2022-08-26T22:25:19.652Z,101924.19
2022-08-26T22:27:46.138Z,101925.59
2022-08-26T22:30:19.575Z,101926.63
2022-08-26T22:32:47.057Z,101919.72
2022-08-26T22:35:28.389Z,101927.00
2022-08-26T22:38:01.637Z,101922.75
2022-08-26T22:40:28.447Z,101923.56
2022-08-26T22:42:57.893Z,101933.25
2022-08-26T22:45:33.647Z,101929.63
2022-08-26T22:48:04.792Z,101922.16
2022-08-26T22:50:32.180Z,101915.47
2022-08-26T22:53:05.639Z,101917.09
2022-08-26T22:55:32.315Z,101907.41
2022-08-26T22:58:05.601Z,101918.50
2022-08-26T23:00:32.825Z,101911.84
2022-08-26T23:03:07.689Z,101908.19
2022-08-26T23:05:41.591Z,101915.69
2022-08-26T23:08:09.372Z,101913.28
2022-08-26T23:10:45.635Z,101910.66
2022-08-26T23:13:21.642Z,101908.81
2022-08-26T23:15:48.118Z,101913.28
2022-08-26T23:18:21.597Z,101910.84
2022-08-26T23:20:54.630Z,101912.44
2022-08-26T23:23:27.614Z,101915.69
2022-08-26T23:25:55.303Z,101908.44
2022-08-26T23:28:22.134Z,101906.19
2022-08-26T23:30:55.580Z,101899.72
2022-08-26T23:33:22.006Z,101889.81
2022-08-26T23:35:48.500Z,101896.47
2022-08-26T23:38:22.574Z,101909.22
2022-08-26T23:40:48.987Z,101901.94
2022-08-26T23:43:23.622Z,101910.03
2022-08-26T23:45:50.107Z,101901.53
2022-08-26T23:48:16.592Z,101896.69
2022-08-26T23:51:10.581Z,101895.28
2022-08-26T23:53:43.654Z,101895.28
2022-08-26T23:56:17.460Z,101891.22
2022-08-26T23:58:51.574Z,101887.59
